sensor_id;sensor_type;location;lat;lon;timestamp;temperature;humidity
77592;DHT22;66891;46.884;17.436;2023-04-16T00:02:19;8.35;88.10
77592;DHT22;66891;46.884;17.436;2023-04-16T00:04:47;8.21;87.80
77592;DHT22;66891;46.884;17.436;2023-04-16T00:07:14;7.97;88.58
77592;DHT22;66891;46.884;17.436;2023-04-16T00:09:42;7.83;89.45
77592;DHT22;66891;46.884;17.436;2023-04-16T00:12:10;7.87;88.69
77592;DHT22;66891;46.884;17.436;2023-04-16T00:14:38;7.88;88.58
77592;DHT22;66891;46.884;17.436;2023-04-16T00:17:05;7.65;88.48
77592;DHT22;66891;46.884;17.436;2023-04-16T00:19:32;7.55;88.82
77592;DHT22;66891;46.884;17.436;2023-04-16T00:21:59;7.46;90.15
77592;DHT22;66891;46.884;17.436;2023-04-16T00:24:27;7.49;90.54
77592;DHT22;66891;46.884;17.436;2023-04-16T00:26:54;7.47;90.30
77592;DHT22;66891;46.884;17.436;2023-04-16T00:29:23;7.60;89.95
77592;DHT22;66891;46.884;17.436;2023-04-16T00:31:50;7.67;89.92
77592;DHT22;66891;46.884;17.436;2023-04-16T00:34:18;7.70;89.84
77592;DHT22;66891;46.884;17.436;2023-04-16T00:36:45;7.69;89.92
77592;DHT22;66891;46.884;17.436;2023-04-16T00:39:12;7.66;89.06
77592;DHT22;66891;46.884;17.436;2023-04-16T00:41:39;7.84;88.65
77592;DHT22;66891;46.884;17.436;2023-04-16T00:44:07;7.94;88.47
77592;DHT22;66891;46.884;17.436;2023-04-16T00:46:36;7.84;88.50
77592;DHT22;66891;46.884;17.436;2023-04-16T00:49:04;7.74;88.49
77592;DHT22;66891;46.884;17.436;2023-04-16T00:51:34;7.81;88.71
77592;DHT22;66891;46.884;17.436;2023-04-16T00:54:02;7.81;88.79
77592;DHT22;66891;46.884;17.436;2023-04-16T00:56:29;7.83;88.92
77592;DHT22;66891;46.884;17.436;2023-04-16T00:58:58;7.80;89.23
77592;DHT22;66891;46.884;17.436;2023-04-16T01:01:25;7.80;89.14
77592;DHT22;66891;46.884;17.436;2023-04-16T01:03:54;7.81;89.35
77592;DHT22;66891;46.884;17.436;2023-04-16T01:06:22;7.76;89.27
77592;DHT22;66891;46.884;17.436;2023-04-16T01:08:49;7.73;89.55
77592;DHT22;66891;46.884;17.436;2023-04-16T01:11:16;7.77;89.65
77592;DHT22;66891;46.884;17.436;2023-04-16T01:13:44;7.84;89.79
77592;DHT22;66891;46.884;17.436;2023-04-16T01:16:11;7.78;90.04
77592;DHT22;66891;46.884;17.436;2023-04-16T01:18:39;7.65;90.71
77592;DHT22;66891;46.884;17.436;2023-04-16T01:21:07;7.94;89.98
77592;DHT22;66891;46.884;17.436;2023-04-16T01:23:35;7.98;88.97
77592;DHT22;66891;46.884;17.436;2023-04-16T01:26:02;8.02;89.13
77592;DHT22;66891;46.884;17.436;2023-04-16T01:28:30;8.14;89.23
77592;DHT22;66891;46.884;17.436;2023-04-16T01:30:59;8.02;89.64
77592;DHT22;66891;46.884;17.436;2023-04-16T01:33:27;8.02;89.36
77592;DHT22;66891;46.884;17.436;2023-04-16T01:35:54;7.98;90.09
77592;DHT22;66891;46.884;17.436;2023-04-16T01:38:23;7.83;90.64
77592;DHT22;66891;46.884;17.436;2023-04-16T01:40:54;7.78;90.90
77592;DHT22;66891;46.884;17.436;2023-04-16T01:43:22;7.77;90.77
77592;DHT22;66891;46.884;17.436;2023-04-16T01:45:49;7.80;91.29
77592;DHT22;66891;46.884;17.436;2023-04-16T01:48:17;7.76;90.95
77592;DHT22;66891;46.884;17.436;2023-04-16T01:50:44;7.77;91.15
77592;DHT22;66891;46.884;17.436;2023-04-16T01:53:12;7.71;91.20
77592;DHT22;66891;46.884;17.436;2023-04-16T01:55:40;7.69;91.54
77592;DHT22;66891;46.884;17.436;2023-04-16T01:58:08;7.70;91.44
77592;DHT22;66891;46.884;17.436;2023-04-16T02:00:37;7.71;91.40
77592;DHT22;66891;46.884;17.436;2023-04-16T02:03:05;7.70;91.26
77592;DHT22;66891;46.884;17.436;2023-04-16T02:05:32;7.60;91.43
77592;DHT22;66891;46.884;17.436;2023-04-16T02:08:00;7.67;91.49
77592;DHT22;66891;46.884;17.436;2023-04-16T02:10:27;7.56;91.65
77592;DHT22;66891;46.884;17.436;2023-04-16T02:12:56;7.67;91.50
77592;DHT22;66891;46.884;17.436;2023-04-16T02:15:23;7.81;91.54
77592;DHT22;66891;46.884;17.436;2023-04-16T02:17:51;7.85;91.17
77592;DHT22;66891;46.884;17.436;2023-04-16T02:20:22;7.81;91.20
77592;DHT22;66891;46.884;17.436;2023-04-16T02:22:50;7.87;91.02
77592;DHT22;66891;46.884;17.436;2023-04-16T02:25:17;7.84;91.74
77592;DHT22;66891;46.884;17.436;2023-04-16T02:27:44;7.80;91.70
77592;DHT22;66891;46.884;17.436;2023-04-16T02:30:13;7.94;91.27
77592;DHT22;66891;46.884;17.436;2023-04-16T02:32:40;7.91;90.99
77592;DHT22;66891;46.884;17.436;2023-04-16T02:35:08;7.90;90.74
77592;DHT22;66891;46.884;17.436;2023-04-16T02:37:35;7.97;90.34
77592;DHT22;66891;46.884;17.436;2023-04-16T02:40:03;7.97;90.64
77592;DHT22;66891;46.884;17.436;2023-04-16T02:42:30;7.88;90.52
77592;DHT22;66891;46.884;17.436;2023-04-16T02:44:58;7.98;90.03
77592;DHT22;66891;46.884;17.436;2023-04-16T02:47:26;7.93;90.20
77592;DHT22;66891;46.884;17.436;2023-04-16T02:49:54;7.87;90.48
77592;DHT22;66891;46.884;17.436;2023-04-16T02:52:21;7.95;90.74
77592;DHT22;66891;46.884;17.436;2023-04-16T02:54:49;7.84;90.86
77592;DHT22;66891;46.884;17.436;2023-04-16T02:57:16;7.94;90.49
77592;DHT22;66891;46.884;17.436;2023-04-16T02:59:43;7.84;91.34
77592;DHT22;66891;46.884;17.436;2023-04-16T03:02:10;7.88;90.51
77592;DHT22;66891;46.884;17.436;2023-04-16T03:04:39;7.76;91.35
77592;DHT22;66891;46.884;17.436;2023-04-16T03:07:06;7.80;90.91
77592;DHT22;66891;46.884;17.436;2023-04-16T03:09:35;7.83;90.96
77592;DHT22;66891;46.884;17.436;2023-04-16T03:12:03;7.87;90.20
77592;DHT22;66891;46.884;17.436;2023-04-16T03:14:30;7.85;90.24
77592;DHT22;66891;46.884;17.436;2023-04-16T03:16:57;7.90;90.60
77592;DHT22;66891;46.884;17.436;2023-04-16T03:19:30;7.87;90.53
77592;DHT22;66891;46.884;17.436;2023-04-16T03:21:58;7.91;90.55
77592;DHT22;66891;46.884;17.436;2023-04-16T03:24:26;7.81;90.39
77592;DHT22;66891;46.884;17.436;2023-04-16T03:26:56;7.76;90.55
77592;DHT22;66891;46.884;17.436;2023-04-16T03:29:23;7.80;91.40
77592;DHT22;66891;46.884;17.436;2023-04-16T03:31:50;7.83;90.97
77592;DHT22;66891;46.884;17.436;2023-04-16T03:34:18;7.91;90.69
77592;DHT22;66891;46.884;17.436;2023-04-16T03:36:45;7.94;90.24
77592;DHT22;66891;46.884;17.436;2023-04-16T03:39:14;7.93;89.89
77592;DHT22;66891;46.884;17.436;2023-04-16T03:41:41;8.04;90.21
77592;DHT22;66891;46.884;17.436;2023-04-16T03:44:09;7.91;90.55
77592;DHT22;66891;46.884;17.436;2023-04-16T03:46:36;7.95;90.31
77592;DHT22;66891;46.884;17.436;2023-04-16T03:49:04;8.02;89.93
77592;DHT22;66891;46.884;17.436;2023-04-16T03:51:31;7.98;89.84
77592;DHT22;66891;46.884;17.436;2023-04-16T03:53:58;7.91;90.10
77592;DHT22;66891;46.884;17.436;2023-04-16T03:56:27;7.90;90.76
77592;DHT22;66891;46.884;17.436;2023-04-16T03:58:55;7.99;90.42
77592;DHT22;66891;46.884;17.436;2023-04-16T04:01:22;7.95;90.40
77592;DHT22;66891;46.884;17.436;2023-04-16T04:03:50;7.98;90.71
77592;DHT22;66891;46.884;17.436;2023-04-16T04:06:17;7.95;90.46
77592;DHT22;66891;46.884;17.436;2023-04-16T04:08:45;7.93;91.07
77592;DHT22;66891;46.884;17.436;2023-04-16T04:11:12;7.87;91.29
77592;DHT22;66891;46.884;17.436;2023-04-16T04:13:41;7.94;91.52
77592;DHT22;66891;46.884;17.436;2023-04-16T04:16:08;7.93;92.20
77592;DHT22;66891;46.884;17.436;2023-04-16T04:18:36;7.77;92.72
77592;DHT22;66891;46.884;17.436;2023-04-16T04:21:07;7.95;91.75
77592;DHT22;66891;46.884;17.436;2023-04-16T04:23:34;8.20;90.56
77592;DHT22;66891;46.884;17.436;2023-04-16T04:26:02;8.18;90.26
77592;DHT22;66891;46.884;17.436;2023-04-16T04:28:32;8.26;89.84
77592;DHT22;66891;46.884;17.436;2023-04-16T04:31:00;8.26;89.90
77592;DHT22;66891;46.884;17.436;2023-04-16T04:33:28;7.97;90.42
77592;DHT22;66891;46.884;17.436;2023-04-16T04:35:55;8.18;90.49
77592;DHT22;66891;46.884;17.436;2023-04-16T04:38:23;8.06;90.37
77592;DHT22;66891;46.884;17.436;2023-04-16T04:40:51;8.16;90.51
77592;DHT22;66891;46.884;17.436;2023-04-16T04:43:19;8.15;91.06
77592;DHT22;66891;46.884;17.436;2023-04-16T04:45:47;8.31;90.26
77592;DHT22;66891;46.884;17.436;2023-04-16T04:48:16;8.21;90.41
77592;DHT22;66891;46.884;17.436;2023-04-16T04:50:44;8.24;90.38
77592;DHT22;66891;46.884;17.436;2023-04-16T04:53:12;7.94;90.60
77592;DHT22;66891;46.884;17.436;2023-04-16T04:55:40;8.15;91.05
77592;DHT22;66891;46.884;17.436;2023-04-16T04:58:08;7.98;90.83
77592;DHT22;66891;46.884;17.436;2023-04-16T05:00:36;7.93;91.16
77592;DHT22;66891;46.884;17.436;2023-04-16T05:03:04;7.97;91.64
77592;DHT22;66891;46.884;17.436;2023-04-16T05:05:34;7.95;90.91
77592;DHT22;66891;46.884;17.436;2023-04-16T05:08:01;7.91;91.52
77592;DHT22;66891;46.884;17.436;2023-04-16T05:10:28;7.85;90.99
77592;DHT22;66891;46.884;17.436;2023-04-16T05:13:00;7.88;90.94
77592;DHT22;66891;46.884;17.436;2023-04-16T05:15:27;7.90;90.88
77592;DHT22;66891;46.884;17.436;2023-04-16T05:17:55;7.95;90.63
77592;DHT22;66891;46.884;17.436;2023-04-16T05:20:23;7.94;90.92
77592;DHT22;66891;46.884;17.436;2023-04-16T05:22:51;7.97;91.33
77592;DHT22;66891;46.884;17.436;2023-04-16T05:25:21;8.11;90.90
77592;DHT22;66891;46.884;17.436;2023-04-16T05:27:48;8.09;90.46
77592;DHT22;66891;46.884;17.436;2023-04-16T05:30:16;8.16;90.95
77592;DHT22;66891;46.884;17.436;2023-04-16T05:32:43;8.08;90.79
77592;DHT22;66891;46.884;17.436;2023-04-16T05:35:10;8.20;90.81
77592;DHT22;66891;46.884;17.436;2023-04-16T05:37:38;8.15;90.62
77592;DHT22;66891;46.884;17.436;2023-04-16T05:40:08;8.22;90.50
77592;DHT22;66891;46.884;17.436;2023-04-16T05:42:35;8.18;89.99
77592;DHT22;66891;46.884;17.436;2023-04-16T05:45:03;8.18;90.27
77592;DHT22;66891;46.884;17.436;2023-04-16T05:47:31;8.21;89.92
77592;DHT22;66891;46.884;17.436;2023-04-16T05:49:58;8.31;90.20
77592;DHT22;66891;46.884;17.436;2023-04-16T05:52:25;8.41;89.51
77592;DHT22;66891;46.884;17.436;2023-04-16T05:54:52;8.39;90.15
77592;DHT22;66891;46.884;17.436;2023-04-16T05:57:21;8.41;89.09
77592;DHT22;66891;46.884;17.436;2023-04-16T05:59:49;8.39;89.75
77592;DHT22;66891;46.884;17.436;2023-04-16T06:02:16;8.36;89.54
77592;DHT22;66891;46.884;17.436;2023-04-16T06:04:43;8.35;90.35
77592;DHT22;66891;46.884;17.436;2023-04-16T06:07:11;8.33;89.88
77592;DHT22;66891;46.884;17.436;2023-04-16T06:09:38;8.33;89.40
77592;DHT22;66891;46.884;17.436;2023-04-16T06:12:06;8.41;89.77
77592;DHT22;66891;46.884;17.436;2023-04-16T06:14:35;8.28;89.20
77592;DHT22;66891;46.884;17.436;2023-04-16T06:17:02;8.38;89.89
77592;DHT22;66891;46.884;17.436;2023-04-16T06:19:29;8.35;89.67
77592;DHT22;66891;46.884;17.436;2023-04-16T06:21:57;8.41;89.35
77592;DHT22;66891;46.884;17.436;2023-04-16T06:24:24;8.46;89.52
77592;DHT22;66891;46.884;17.436;2023-04-16T06:26:51;8.42;88.74
77592;DHT22;66891;46.884;17.436;2023-04-16T06:29:20;8.28;88.47
77592;DHT22;66891;46.884;17.436;2023-04-16T06:32:01;8.24;88.78
77592;DHT22;66891;46.884;17.436;2023-04-16T06:34:29;8.21;89.06
77592;DHT22;66891;46.884;17.436;2023-04-16T06:36:57;8.11;88.88
77592;DHT22;66891;46.884;17.436;2023-04-16T06:39:24;8.09;88.91
77592;DHT22;66891;46.884;17.436;2023-04-16T06:41:51;8.05;88.66
77592;DHT22;66891;46.884;17.436;2023-04-16T06:44:19;8.08;88.91
77592;DHT22;66891;46.884;17.436;2023-04-16T06:46:46;8.16;89.16
77592;DHT22;66891;46.884;17.436;2023-04-16T06:49:16;8.20;88.41
77592;DHT22;66891;46.884;17.436;2023-04-16T06:51:43;8.14;88.64
77592;DHT22;66891;46.884;17.436;2023-04-16T06:54:10;8.24;88.98
77592;DHT22;66891;46.884;17.436;2023-04-16T06:56:38;8.26;89.32
77592;DHT22;66891;46.884;17.436;2023-04-16T06:59:06;8.32;88.68
77592;DHT22;66891;46.884;17.436;2023-04-16T07:01:34;8.46;88.12
77592;DHT22;66891;46.884;17.436;2023-04-16T07:04:02;8.48;88.22
77592;DHT22;66891;46.884;17.436;2023-04-16T07:06:31;8.49;87.97
77592;DHT22;66891;46.884;17.436;2023-04-16T07:08:58;8.56;88.01
77592;DHT22;66891;46.884;17.436;2023-04-16T07:11:26;8.49;87.45
77592;DHT22;66891;46.884;17.436;2023-04-16T07:13:54;8.49;88.58
77592;DHT22;66891;46.884;17.436;2023-04-16T07:16:21;8.50;89.03
77592;DHT22;66891;46.884;17.436;2023-04-16T07:18:49;8.48;88.79
77592;DHT22;66891;46.884;17.436;2023-04-16T07:21:16;8.53;89.01
77592;DHT22;66891;46.884;17.436;2023-04-16T07:23:45;8.53;88.31
77592;DHT22;66891;46.884;17.436;2023-04-16T07:26:12;8.56;88.11
77592;DHT22;66891;46.884;17.436;2023-04-16T07:28:40;8.42;88.55
77592;DHT22;66891;46.884;17.436;2023-04-16T07:31:07;8.48;89.07
77592;DHT22;66891;46.884;17.436;2023-04-16T07:33:35;8.43;89.15
77592;DHT22;66891;46.884;17.436;2023-04-16T07:36:03;8.38;88.61
77592;DHT22;66891;46.884;17.436;2023-04-16T07:38:31;8.53;88.73
77592;DHT22;66891;46.884;17.436;2023-04-16T07:41:00;8.45;89.00
77592;DHT22;66891;46.884;17.436;2023-04-16T07:43:28;8.52;89.58
77592;DHT22;66891;46.884;17.436;2023-04-16T07:45:55;8.49;89.69
77592;DHT22;66891;46.884;17.436;2023-04-16T07:48:23;8.36;90.34
77592;DHT22;66891;46.884;17.436;2023-04-16T07:50:51;8.42;90.05
77592;DHT22;66891;46.884;17.436;2023-04-16T07:53:18;8.45;89.54
77592;DHT22;66891;46.884;17.436;2023-04-16T07:55:46;8.45;89.51
77592;DHT22;66891;46.884;17.436;2023-04-16T07:58:15;8.28;89.72
77592;DHT22;66891;46.884;17.436;2023-04-16T08:00:42;8.38;90.08
77592;DHT22;66891;46.884;17.436;2023-04-16T08:03:10;8.31;89.35
77592;DHT22;66891;46.884;17.436;2023-04-16T08:05:37;8.32;89.90
77592;DHT22;66891;46.884;17.436;2023-04-16T08:08:05;8.32;89.61
77592;DHT22;66891;46.884;17.436;2023-04-16T08:10:32;8.29;89.18
77592;DHT22;66891;46.884;17.436;2023-04-16T08:13:00;8.20;88.71
77592;DHT22;66891;46.884;17.436;2023-04-16T08:15:29;8.20;89.96
77592;DHT22;66891;46.884;17.436;2023-04-16T08:17:57;8.28;90.81
77592;DHT22;66891;46.884;17.436;2023-04-16T08:20:25;8.12;89.62
77592;DHT22;66891;46.884;17.436;2023-04-16T08:22:53;8.12;89.88
77592;DHT22;66891;46.884;17.436;2023-04-16T08:25:20;8.24;90.35
77592;DHT22;66891;46.884;17.436;2023-04-16T08:27:50;8.31;90.39
77592;DHT22;66891;46.884;17.436;2023-04-16T08:30:18;8.16;89.96
77592;DHT22;66891;46.884;17.436;2023-04-16T08:32:47;8.21;90.49
77592;DHT22;66891;46.884;17.436;2023-04-16T08:35:16;8.29;90.04
77592;DHT22;66891;46.884;17.436;2023-04-16T08:37:43;8.32;90.17
77592;DHT22;66891;46.884;17.436;2023-04-16T08:40:11;8.36;90.02
77592;DHT22;66891;46.884;17.436;2023-04-16T08:42:40;8.39;90.02
77592;DHT22;66891;46.884;17.436;2023-04-16T08:45:14;8.43;90.37
77592;DHT22;66891;46.884;17.436;2023-04-16T08:47:47;8.36;89.73
77592;DHT22;66891;46.884;17.436;2023-04-16T08:50:15;8.41;89.78
77592;DHT22;66891;46.884;17.436;2023-04-16T08:52:48;8.36;89.71
77592;DHT22;66891;46.884;17.436;2023-04-16T08:55:18;8.43;89.48
77592;DHT22;66891;46.884;17.436;2023-04-16T08:57:49;8.54;89.36
77592;DHT22;66891;46.884;17.436;2023-04-16T09:00:19;8.62;88.74
77592;DHT22;66891;46.884;17.436;2023-04-16T09:02:49;8.56;88.94
77592;DHT22;66891;46.884;17.436;2023-04-16T09:05:17;8.52;88.74
77592;DHT22;66891;46.884;17.436;2023-04-16T09:07:47;8.76;89.98
77592;DHT22;66891;46.884;17.436;2023-04-16T09:10:14;8.80;90.16
77592;DHT22;66891;46.884;17.436;2023-04-16T09:12:42;9.05;89.92
77592;DHT22;66891;46.884;17.436;2023-04-16T09:15:11;9.01;88.86
77592;DHT22;66891;46.884;17.436;2023-04-16T09:17:39;9.18;89.31
77592;DHT22;66891;46.884;17.436;2023-04-16T09:20:09;9.35;88.71
77592;DHT22;66891;46.884;17.436;2023-04-16T09:22:38;9.55;88.33
77592;DHT22;66891;46.884;17.436;2023-04-16T09:25:11;9.36;86.61
77592;DHT22;66891;46.884;17.436;2023-04-16T09:27:38;9.19;87.56
77592;DHT22;66891;46.884;17.436;2023-04-16T09:30:21;9.17;88.00
77592;DHT22;66891;46.884;17.436;2023-04-16T09:32:49;9.22;87.95
77592;DHT22;66891;46.884;17.436;2023-04-16T09:35:19;9.11;87.63
77592;DHT22;66891;46.884;17.436;2023-04-16T09:37:56;8.94;88.63
77592;DHT22;66891;46.884;17.436;2023-04-16T09:40:24;8.81;88.64
77592;DHT22;66891;46.884;17.436;2023-04-16T09:42:56;8.66;89.29
77592;DHT22;66891;46.884;17.436;2023-04-16T09:45:23;8.50;88.69
77592;DHT22;66891;46.884;17.436;2023-04-16T09:47:51;8.48;89.90
77592;DHT22;66891;46.884;17.436;2023-04-16T09:50:19;8.52;90.18
77592;DHT22;66891;46.884;17.436;2023-04-16T09:52:48;8.56;90.00
77592;DHT22;66891;46.884;17.436;2023-04-16T09:55:21;8.60;90.26
77592;DHT22;66891;46.884;17.436;2023-04-16T09:57:57;8.59;89.67
77592;DHT22;66891;46.884;17.436;2023-04-16T10:00:25;8.63;89.96
77592;DHT22;66891;46.884;17.436;2023-04-16T10:03:02;8.63;90.52
77592;DHT22;66891;46.884;17.436;2023-04-16T10:05:32;8.73;90.26
77592;DHT22;66891;46.884;17.436;2023-04-16T10:07:59;8.88;89.82
77592;DHT22;66891;46.884;17.436;2023-04-16T10:10:28;8.87;89.94
77592;DHT22;66891;46.884;17.436;2023-04-16T10:12:55;8.94;88.85
77592;DHT22;66891;46.884;17.436;2023-04-16T10:15:24;8.94;88.74
77592;DHT22;66891;46.884;17.436;2023-04-16T10:17:52;8.87;88.55
77592;DHT22;66891;46.884;17.436;2023-04-16T10:20:20;8.90;88.57
77592;DHT22;66891;46.884;17.436;2023-04-16T10:22:50;8.97;89.04
77592;DHT22;66891;46.884;17.436;2023-04-16T10:25:19;9.12;88.62
77592;DHT22;66891;46.884;17.436;2023-04-16T10:27:47;9.31;88.49
77592;DHT22;66891;46.884;17.436;2023-04-16T10:30:14;9.36;88.16
77592;DHT22;66891;46.884;17.436;2023-04-16T10:32:43;9.55;87.63
77592;DHT22;66891;46.884;17.436;2023-04-16T10:35:14;9.80;88.08
77592;DHT22;66891;46.884;17.436;2023-04-16T10:37:42;9.86;87.46
77592;DHT22;66891;46.884;17.436;2023-04-16T10:40:26;10.42;86.99
77592;DHT22;66891;46.884;17.436;2023-04-16T10:42:57;10.73;84.94
77592;DHT22;66891;46.884;17.436;2023-04-16T10:45:28;11.16;84.16
77592;DHT22;66891;46.884;17.436;2023-04-16T10:47:56;11.04;82.78
77592;DHT22;66891;46.884;17.436;2023-04-16T10:50:33;11.20;83.59
77592;DHT22;66891;46.884;17.436;2023-04-16T10:53:17;10.86;82.15
77592;DHT22;66891;46.884;17.436;2023-04-16T10:56:13;10.77;82.66
77592;DHT22;66891;46.884;17.436;2023-04-16T10:58:41;10.72;82.59
77592;DHT22;66891;46.884;17.436;2023-04-16T11:01:12;10.52;82.40
77592;DHT22;66891;46.884;17.436;2023-04-16T11:03:41;10.59;81.96
77592;DHT22;66891;46.884;17.436;2023-04-16T11:06:10;10.82;81.79
77592;DHT22;66891;46.884;17.436;2023-04-16T11:08:39;10.77;83.07
77592;DHT22;66891;46.884;17.436;2023-04-16T11:11:22;10.96;81.85
77592;DHT22;66891;46.884;17.436;2023-04-16T11:13:54;10.68;80.74
77592;DHT22;66891;46.884;17.436;2023-04-16T11:16:23;10.63;82.20
77592;DHT22;66891;46.884;17.436;2023-04-16T11:18:50;10.72;81.31
77592;DHT22;66891;46.884;17.436;2023-04-16T11:21:19;10.88;81.87
77592;DHT22;66891;46.884;17.436;2023-04-16T11:23:48;11.27;82.22
77592;DHT22;66891;46.884;17.436;2023-04-16T11:26:27;11.42;82.42
77592;DHT22;66891;46.884;17.436;2023-04-16T11:28:55;11.44;81.67
77592;DHT22;66891;46.884;17.436;2023-04-16T11:31:23;11.10;80.07
77592;DHT22;66891;46.884;17.436;2023-04-16T11:33:50;11.86;78.78
77592;DHT22;66891;46.884;17.436;2023-04-16T11:36:18;13.02;76.70
77592;DHT22;66891;46.884;17.436;2023-04-16T11:38:47;13.17;73.88
77592;DHT22;66891;46.884;17.436;2023-04-16T11:41:19;12.71;74.42
77592;DHT22;66891;46.884;17.436;2023-04-16T11:43:49;12.61;74.55
77592;DHT22;66891;46.884;17.436;2023-04-16T11:46:16;12.50;74.95
77592;DHT22;66891;46.884;17.436;2023-04-16T11:48:53;12.92;73.82
77592;DHT22;66891;46.884;17.436;2023-04-16T11:51:22;13.03;73.18
77592;DHT22;66891;46.884;17.436;2023-04-16T11:53:50;13.35;72.69
77592;DHT22;66891;46.884;17.436;2023-04-16T11:56:26;13.23;73.21
77592;DHT22;66891;46.884;17.436;2023-04-16T11:59:12;13.46;71.29
77592;DHT22;66891;46.884;17.436;2023-04-16T12:01:41;13.75;71.29
77592;DHT22;66891;46.884;17.436;2023-04-16T12:04:12;13.32;70.54
77592;DHT22;66891;46.884;17.436;2023-04-16T12:06:40;12.79;73.25
77592;DHT22;66891;46.884;17.436;2023-04-16T12:09:23;13.30;71.25
77592;DHT22;66891;46.884;17.436;2023-04-16T12:11:51;13.22;72.82
77592;DHT22;66891;46.884;17.436;2023-04-16T12:14:20;12.67;72.97
77592;DHT22;66891;46.884;17.436;2023-04-16T12:16:49;12.72;74.36
77592;DHT22;66891;46.884;17.436;2023-04-16T12:19:17;12.71;73.35
77592;DHT22;66891;46.884;17.436;2023-04-16T12:21:47;12.44;75.01
77592;DHT22;66891;46.884;17.436;2023-04-16T12:24:18;12.52;74.59
77592;DHT22;66891;46.884;17.436;2023-04-16T12:27:08;12.20;74.74
77592;DHT22;66891;46.884;17.436;2023-04-16T12:29:37;12.45;74.28
77592;DHT22;66891;46.884;17.436;2023-04-16T12:32:19;12.44;72.63
77592;DHT22;66891;46.884;17.436;2023-04-16T12:34:50;12.62;73.19
77592;DHT22;66891;46.884;17.436;2023-04-16T12:37:17;13.15;72.61
77592;DHT22;66891;46.884;17.436;2023-04-16T12:39:44;12.99;71.53
77592;DHT22;66891;46.884;17.436;2023-04-16T12:42:14;12.98;71.29
77592;DHT22;66891;46.884;17.436;2023-04-16T12:44:42;12.93;72.14
77592;DHT22;66891;46.884;17.436;2023-04-16T12:47:10;13.02;71.48
77592;DHT22;66891;46.884;17.436;2023-04-16T12:49:37;13.20;72.26
77592;DHT22;66891;46.884;17.436;2023-04-16T12:52:05;12.81;71.40
77592;DHT22;66891;46.884;17.436;2023-04-16T12:54:33;12.58;71.55
77592;DHT22;66891;46.884;17.436;2023-04-16T12:57:00;12.87;71.61
77592;DHT22;66891;46.884;17.436;2023-04-16T12:59:27;12.77;71.76
77592;DHT22;66891;46.884;17.436;2023-04-16T13:01:56;12.64;72.75
77592;DHT22;66891;46.884;17.436;2023-04-16T13:04:23;12.55;71.99
77592;DHT22;66891;46.884;17.436;2023-04-16T13:06:52;12.67;71.91
77592;DHT22;66891;46.884;17.436;2023-04-16T13:09:19;12.65;72.37
77592;DHT22;66891;46.884;17.436;2023-04-16T13:11:46;12.58;72.36
77592;DHT22;66891;46.884;17.436;2023-04-16T13:14:14;12.65;72.19
77592;DHT22;66891;46.884;17.436;2023-04-16T13:16:41;12.88;72.14
77592;DHT22;66891;46.884;17.436;2023-04-16T13:19:10;12.44;72.53
77592;DHT22;66891;46.884;17.436;2023-04-16T13:21:38;12.52;73.81
77592;DHT22;66891;46.884;17.436;2023-04-16T13:24:06;12.51;72.99
77592;DHT22;66891;46.884;17.436;2023-04-16T13:26:34;12.50;72.02
77592;DHT22;66891;46.884;17.436;2023-04-16T13:29:01;12.65;73.06
77592;DHT22;66891;46.884;17.436;2023-04-16T13:31:29;12.38;72.87
77592;DHT22;66891;46.884;17.436;2023-04-16T13:33:57;12.40;73.00
77592;DHT22;66891;46.884;17.436;2023-04-16T13:36:26;12.54;73.53
77592;DHT22;66891;46.884;17.436;2023-04-16T13:38:53;12.60;72.81
77592;DHT22;66891;46.884;17.436;2023-04-16T13:41:21;12.47;72.34
77592;DHT22;66891;46.884;17.436;2023-04-16T13:43:48;12.58;73.23
77592;DHT22;66891;46.884;17.436;2023-04-16T13:46:16;12.30;72.53
77592;DHT22;66891;46.884;17.436;2023-04-16T13:48:45;12.37;73.55
77592;DHT22;66891;46.884;17.436;2023-04-16T13:51:13;12.19;72.46
77592;DHT22;66891;46.884;17.436;2023-04-16T13:53:43;12.31;73.42
77592;DHT22;66891;46.884;17.436;2023-04-16T13:56:13;12.26;73.06
77592;DHT22;66891;46.884;17.436;2023-04-16T13:58:47;12.33;73.30
77592;DHT22;66891;46.884;17.436;2023-04-16T14:01:31;12.52;72.82
77592;DHT22;66891;46.884;17.436;2023-04-16T14:04:24;12.41;72.53
77592;DHT22;66891;46.884;17.436;2023-04-16T14:06:57;12.50;73.39
77592;DHT22;66891;46.884;17.436;2023-04-16T14:09:44;12.20;72.93
77592;DHT22;66891;46.884;17.436;2023-04-16T14:12:19;12.14;73.34
77592;DHT22;66891;46.884;17.436;2023-04-16T14:14:46;12.45;72.97
77592;DHT22;66891;46.884;17.436;2023-04-16T14:17:14;12.50;72.37
77592;DHT22;66891;46.884;17.436;2023-04-16T14:19:41;12.62;72.05
77592;DHT22;66891;46.884;17.436;2023-04-16T14:22:09;12.38;71.72
77592;DHT22;66891;46.884;17.436;2023-04-16T14:24:41;12.42;72.31
77592;DHT22;66891;46.884;17.436;2023-04-16T14:27:29;12.48;72.62
77592;DHT22;66891;46.884;17.436;2023-04-16T14:30:25;12.51;72.77
77592;DHT22;66891;46.884;17.436;2023-04-16T14:32:56;12.26;73.16
77592;DHT22;66891;46.884;17.436;2023-04-16T14:35:50;12.20;72.98
77592;DHT22;66891;46.884;17.436;2023-04-16T14:38:59;12.16;73.83
77592;DHT22;66891;46.884;17.436;2023-04-16T14:48:29;11.75;74.05
77592;DHT22;66891;46.884;17.436;2023-04-16T14:51:35;11.71;74.82
77592;DHT22;66891;46.884;17.436;2023-04-16T14:54:41;11.55;74.79
77592;DHT22;66891;46.884;17.436;2023-04-16T14:58:12;11.61;75.39
77592;DHT22;66891;46.884;17.436;2023-04-16T15:00:51;11.64;75.69
77592;DHT22;66891;46.884;17.436;2023-04-16T15:03:19;11.47;75.09
77592;DHT22;66891;46.884;17.436;2023-04-16T15:05:47;11.45;75.41
77592;DHT22;66891;46.884;17.436;2023-04-16T15:08:21;11.48;75.64
77592;DHT22;66891;46.884;17.436;2023-04-16T15:10:49;11.38;75.99
77592;DHT22;66891;46.884;17.436;2023-04-16T15:13:16;11.28;76.00
77592;DHT22;66891;46.884;17.436;2023-04-16T15:15:44;11.31;76.52
77592;DHT22;66891;46.884;17.436;2023-04-16T15:18:13;11.34;76.49
77592;DHT22;66891;46.884;17.436;2023-04-16T15:20:44;11.31;77.17
77592;DHT22;66891;46.884;17.436;2023-04-16T15:23:12;11.34;76.34
77592;DHT22;66891;46.884;17.436;2023-04-16T15:25:39;11.38;76.44
77592;DHT22;66891;46.884;17.436;2023-04-16T15:28:06;11.37;76.73
77592;DHT22;66891;46.884;17.436;2023-04-16T15:30:34;11.38;76.88
77592;DHT22;66891;46.884;17.436;2023-04-16T15:33:01;11.44;77.16
77592;DHT22;66891;46.884;17.436;2023-04-16T15:35:30;11.48;76.83
77592;DHT22;66891;46.884;17.436;2023-04-16T15:37:58;11.50;76.67
77592;DHT22;66891;46.884;17.436;2023-04-16T15:40:25;11.41;76.67
77592;DHT22;66891;46.884;17.436;2023-04-16T15:42:54;11.51;76.67
77592;DHT22;66891;46.884;17.436;2023-04-16T15:45:21;11.51;77.43
77592;DHT22;66891;46.884;17.436;2023-04-16T15:47:49;11.52;76.63